Joint Base Elmendorf-Richardson, Alaska
Current Conditions -  °F | °C
As of 10:58 AM on Thursday 30 Oct 2014 (Local Time) from PAED Reporting Station
Overcast Overcast  
Wind Chill: 25°   Ceiling: 4900
Heat Index: 25°   Visibility: 10mi
Dew Point: 21°   Wind: 0mph
Humidity: 85%   Direction: NA
Pressure: 29.54"   Gusts: NA
Location:  61.25°N, 149.81°W
Report Text: PAED 301858Z AUTO 00000KT 10SM OVC049 M04/M06 A2954 RMK AO2 SLP001 T10381060 $
Loading
Personal Weather Stations






























Interactive Weather Map
Tropical Storm Tracking
New forecast layout! Learn more

10-Day Weather Forecast

Advertisements
Track Severe Weather on mobile